createdAt,value
2023-01-20T05:07:31.243Z,96454.03
2023-01-20T05:09:33.977Z,96457.34
2023-01-20T05:11:36.634Z,96457.78
2023-01-20T05:13:40.179Z,96461.94
2023-01-20T05:15:44.620Z,96471.03
2023-01-20T05:17:47.401Z,96468.22
2023-01-20T05:19:50.213Z,96472.41
2023-01-20T05:21:52.988Z,96472.66
2023-01-20T05:23:57.468Z,96477.28
2023-01-20T05:26:00.127Z,96482.88
2023-01-20T05:28:02.816Z,96485.84
2023-01-20T05:30:09.101Z,96501.34
2023-01-20T05:32:12.144Z,96492.41
2023-01-20T05:34:16.377Z,96506.78
2023-01-20T05:36:19.095Z,96508.25
2023-01-20T05:38:21.843Z,96513.34
2023-01-20T05:40:25.889Z,96511.56
2023-01-20T05:42:28.557Z,96508.81
2023-01-20T05:44:31.232Z,96519.75
2023-01-20T05:46:33.999Z,96535.25
2023-01-20T05:48:37.033Z,96532.66
2023-01-20T05:50:39.723Z,96532.66
2023-01-20T05:52:42.522Z,96530.72
2023-01-20T05:54:45.586Z,96538.53
2023-01-20T05:56:50.270Z,96535.66
2023-01-20T05:58:55.343Z,96537.94
2023-01-20T06:01:05.791Z,96540.56
2023-01-20T06:03:08.515Z,96542.19
2023-01-20T06:05:11.247Z,96540.25
2023-01-20T06:07:14.585Z,96545.16
2023-01-20T06:09:17.533Z,96545.16
2023-01-20T06:11:21.015Z,96547.94
2023-01-20T06:13:25.127Z,96548.75
2023-01-20T06:15:28.028Z,96555.59
2023-01-20T06:17:30.786Z,96560.81
2023-01-20T06:19:33.454Z,96567.56
2023-01-20T06:21:36.156Z,96574.56
2023-01-20T06:23:38.908Z,96574.69
2023-01-20T06:25:41.988Z,96575.81
2023-01-20T06:27:44.639Z,96581.69
2023-01-20T06:29:48.688Z,96587.75
2023-01-20T06:31:51.442Z,96595.44
2023-01-20T06:33:54.188Z,96592.84
2023-01-20T06:35:57.235Z,96597.50
2023-01-20T06:37:59.997Z,96607.28
2023-01-20T06:40:02.695Z,96605.66
2023-01-20T06:42:05.949Z,96608.09
2023-01-20T06:44:08.788Z,96614.97
2023-01-20T06:46:15.219Z,96623.09
2023-01-20T06:48:17.999Z,96624.38
2023-01-20T06:50:20.675Z,96623.00
2023-01-20T06:52:23.500Z,96626.72
2023-01-20T06:54:27.588Z,96626.06
2023-01-20T06:56:30.292Z,96628.66
2023-01-20T06:58:33.943Z,96635.53
2023-01-20T07:00:42.163Z,96632.78
2023-01-20T07:02:46.804Z,96635.75
2023-01-20T07:04:52.667Z,96646.88
2023-01-20T07:06:55.447Z,96643.47
2023-01-20T07:08:59.062Z,96649.50
2023-01-20T07:11:01.827Z,96655.38
2023-01-20T07:13:04.519Z,96654.00
2023-01-20T07:15:08.299Z,96663.63
2023-01-20T07:17:13.187Z,96668.72
2023-01-20T07:19:17.375Z,96670.38
2023-01-20T07:21:21.265Z,96666.78
2023-01-20T07:23:24.633Z,96671.47
2023-01-20T07:25:29.354Z,96671.91
2023-01-20T07:27:31.988Z,96680.03
2023-01-20T07:29:34.984Z,96686.22
2023-01-20T07:31:37.802Z,96685.91
2023-01-20T07:33:40.700Z,96690.53
2023-01-20T07:35:44.760Z,96691.91
2023-01-20T07:37:47.415Z,96687.38
2023-01-20T07:39:50.131Z,96691.31
2023-01-20T07:41:53.330Z,96702.47
2023-01-20T07:43:56.149Z,96705.06
2023-01-20T07:45:59.847Z,96707.69
2023-01-20T07:48:03.804Z,96715.50
2023-01-20T07:50:07.545Z,96710.28
2023-01-20T07:52:11.663Z,96716.03
2023-01-20T07:54:14.628Z,96714.91
2023-01-20T07:56:18.958Z,96730.28
2023-01-20T07:58:21.583Z,96729.03
2023-01-20T08:00:24.395Z,96735.59
2023-01-20T08:02:27.095Z,96737.38
2023-01-20T08:04:29.887Z,96748.06
2023-01-20T08:06:33.065Z,96743.22
2023-01-20T08:08:37.604Z,96750.47
2023-01-20T08:10:40.375Z,96751.81
2023-01-20T08:12:43.120Z,96754.28
2023-01-20T08:14:46.472Z,96761.97
2023-01-20T08:16:49.739Z,96764.97
2023-01-20T08:18:54.887Z,96761.97
2023-01-20T08:20:58.057Z,96766.06
2023-01-20T08:23:00.704Z,96773.78
2023-01-20T08:25:05.056Z,96778.72
2023-01-20T08:27:07.906Z,96777.28
2023-01-20T08:29:11.019Z,96787.81
2023-01-20T08:31:16.674Z,96787.38
2023-01-20T08:33:19.474Z,96793.44
2023-01-20T08:35:22.186Z,96792.59
2023-01-20T08:37:25.232Z,96795.09
2023-01-20T08:39:28.016Z,96806.06
2023-01-20T08:41:35.375Z,96801.19
2023-01-20T08:43:38.518Z,96798.59
2023-01-20T08:45:43.637Z,96808.75
2023-01-20T08:47:46.338Z,96811.59
2023-01-20T08:49:49.267Z,96807.84
2023-01-20T08:51:52.041Z,96811.16
2023-01-20T08:53:55.067Z,96811.00
2023-01-20T08:55:58.952Z,96824.59
2023-01-20T08:58:03.487Z,96823.47
2023-01-20T09:00:10.950Z,96832.94
2023-01-20T09:02:14.377Z,96836.38
2023-01-20T09:04:18.194Z,96838.72
2023-01-20T09:06:21.814Z,96838.41
2023-01-20T09:08:26.928Z,96844.31
2023-01-20T09:10:29.722Z,96843.19
2023-01-20T09:12:32.401Z,96849.94
2023-01-20T09:14:36.487Z,96853.22
2023-01-20T09:16:39.186Z,96861.06
2023-01-20T09:18:41.953Z,96866.13
2023-01-20T09:20:44.860Z,96868.91
2023-01-20T09:22:47.943Z,96865.47
2023-01-20T09:24:50.599Z,96865.63
2023-01-20T09:26:53.436Z,96872.19
2023-01-20T09:28:56.203Z,96874.50
2023-01-20T09:31:01.360Z,96875.03
2023-01-20T09:33:04.258Z,96875.88
2023-01-20T09:35:08.847Z,96883.72
2023-01-20T09:37:29.159Z,96881.75
2023-01-20T09:39:49.658Z,96882.44
2023-01-20T09:42:10.651Z,96886.03
2023-01-20T09:44:31.712Z,96891.09
2023-01-20T09:47:07.470Z,96894.53
2023-01-20T09:49:40.253Z,96894.69
2023-01-20T09:52:07.672Z,96894.53
2023-01-20T09:54:17.488Z,96893.25
2023-01-20T09:56:23.333Z,96894.47
2023-01-20T09:58:36.045Z,96901.34
2023-01-20T10:00:42.194Z,96901.19
2023-01-20T10:02:52.292Z,96902.00
2023-01-20T10:04:59.828Z,96904.19
2023-01-20T10:07:10.885Z,96905.13
2023-01-20T10:09:23.330Z,96897.97
2023-01-20T10:11:30.348Z,96909.13
2023-01-20T10:13:37.507Z,96911.44
2023-01-20T10:15:45.172Z,96902.28
2023-01-20T10:17:55.982Z,96904.25
2023-01-20T10:20:05.307Z,96901.47
2023-01-20T10:22:12.579Z,96895.13
2023-01-20T10:24:22.081Z,96903.34
2023-01-20T10:26:31.384Z,96900.28
2023-01-20T10:28:39.676Z,96907.16
2023-01-20T10:30:46.295Z,96909.78
2023-01-20T10:32:56.968Z,96907.69
2023-01-20T10:35:03.012Z,96915.53
2023-01-20T10:37:08.098Z,96914.72
2023-01-20T10:39:21.983Z,96912.09
2023-01-20T10:41:32.886Z,96910.97
2023-01-20T10:43:35.741Z,96919.47
2023-01-20T10:45:50.806Z,96921.94
2023-01-20T10:48:09.454Z,96919.63
2023-01-20T10:50:38.370Z,96916.44
2023-01-20T10:53:04.165Z,96923.00
2023-01-20T10:55:19.244Z,96922.47
2023-01-20T10:57:22.443Z,96921.34
2023-01-20T10:59:31.128Z,96918.56
2023-01-20T11:01:34.032Z,96923.66
2023-01-20T11:03:41.796Z,96918.56
2023-01-20T11:05:46.664Z,96917.59
2023-01-20T11:07:51.360Z,96921.03
2023-01-20T11:09:54.554Z,96916.63
2023-01-20T11:11:58.724Z,96921.56
2023-01-20T11:14:01.572Z,96923.88
2023-01-20T11:16:12.383Z,96920.59
2023-01-20T11:18:33.431Z,96925.53
2023-01-20T11:20:38.155Z,96927.31
2023-01-20T11:22:40.875Z,96924.53
2023-01-20T11:24:44.603Z,96920.28
2023-01-20T11:26:47.439Z,96927.00
2023-01-20T11:28:54.158Z,96928.81
2023-01-20T11:30:58.035Z,96927.16
2023-01-20T11:33:18.507Z,96927.00
2023-01-20T11:35:24.526Z,96932.25
2023-01-20T11:37:37.310Z,96929.78
2023-01-20T11:39:45.149Z,96928.66
2023-01-20T11:41:47.791Z,96928.50
2023-01-20T11:43:55.411Z,96933.88
2023-01-20T11:46:22.453Z,96939.28
2023-01-20T11:48:25.260Z,96938.97
2023-01-20T11:50:33.203Z,96932.75
2023-01-20T11:52:39.843Z,96933.44
2023-01-20T11:54:42.564Z,96931.50
2023-01-20T11:56:48.781Z,96932.47
2023-01-20T11:58:55.282Z,96934.09
2023-01-20T12:01:06.688Z,96934.09
2023-01-20T12:03:28.741Z,96938.69
2023-01-20T12:05:40.302Z,96934.09
2023-01-20T12:07:47.285Z,96939.03
2023-01-20T12:09:54.851Z,96934.78
2023-01-20T12:12:00.612Z,96939.69
2023-01-20T12:14:24.786Z,96940.53
2023-01-20T12:16:30.936Z,96940.06
2023-01-20T12:18:38.927Z,96943.34
2023-01-20T12:20:54.978Z,96939.75
2023-01-20T12:23:09.046Z,96942.38
2023-01-20T12:25:19.905Z,96942.53
2023-01-20T12:27:28.079Z,96942.38
2023-01-20T12:29:46.649Z,96947.78
2023-01-20T12:31:50.626Z,96936.47
2023-01-20T12:34:00.324Z,96944.50
2023-01-20T12:36:39.419Z,96948.75
2023-01-20T12:38:56.951Z,96945.00
2023-01-20T12:41:05.380Z,96952.53
2023-01-20T12:43:30.099Z,96945.97
2023-01-20T12:45:48.224Z,96953.84
2023-01-20T12:48:03.146Z,96947.47
2023-01-20T12:50:28.498Z,96956.16
2023-01-20T12:52:55.057Z,96944.38
2023-01-20T12:55:21.273Z,96946.88
2023-01-20T12:57:46.952Z,96953.09
2023-01-20T12:59:56.768Z,96952.09
2023-01-20T13:02:21.343Z,96950.81
2023-01-20T13:04:45.861Z,96951.78
2023-01-20T13:06:58.701Z,96954.25
2023-01-20T13:09:16.328Z,96944.59
2023-01-20T13:11:29.769Z,96947.06
2023-01-20T13:13:55.832Z,96939.03
2023-01-20T13:16:03.705Z,96944.00
2023-01-20T13:18:26.555Z,96939.72
2023-01-20T13:20:31.186Z,96946.44
2023-01-20T13:22:34.812Z,96943.84
2023-01-20T13:24:37.949Z,96947.38
2023-01-20T13:26:42.824Z,96948.50
2023-01-20T13:28:53.046Z,96949.25
2023-01-20T13:30:57.436Z,96947.31
2023-01-20T13:33:07.813Z,96948.66
2023-01-20T13:35:45.496Z,96949.16
2023-01-20T13:37:51.824Z,96950.47
2023-01-20T13:39:57.946Z,96946.88
2023-01-20T13:42:02.186Z,96947.38
2023-01-20T13:44:27.143Z,96956.56
2023-01-20T13:46:50.769Z,96959.00
2023-01-20T13:49:38.149Z,96952.66
2023-01-20T13:51:46.237Z,96966.44
2023-01-20T13:53:49.125Z,96963.31
2023-01-20T13:55:59.673Z,96973.91
2023-01-20T13:58:03.774Z,96969.50
2023-01-20T14:00:17.511Z,96970.03
2023-01-20T14:02:22.193Z,96973.31
2023-01-20T14:04:25.046Z,96976.75
2023-01-20T14:06:28.515Z,96972.66
2023-01-20T14:08:33.260Z,96975.28
2023-01-20T14:10:35.959Z,96979.53
2023-01-20T14:12:41.458Z,96977.88
2023-01-20T14:14:47.510Z,96971.00
2023-01-20T14:16:50.863Z,96976.25
2023-01-20T14:18:55.303Z,96975.56
2023-01-20T14:21:03.224Z,96986.19
2023-01-20T14:23:36.817Z,96986.19
2023-01-20T14:25:39.763Z,96981.78
2023-01-20T14:27:45.526Z,96986.72
2023-01-20T14:29:51.537Z,96989.34
2023-01-20T14:31:54.306Z,96991.28
2023-01-20T14:34:00.151Z,96988.66
2023-01-20T14:36:07.764Z,96989.94
2023-01-20T14:38:18.042Z,96988.97
2023-01-20T14:40:24.979Z,96990.63
2023-01-20T14:42:31.129Z,96994.06
2023-01-20T14:44:33.863Z,96988.97
2023-01-20T14:46:40.469Z,96994.22
2023-01-20T14:48:44.401Z,96989.63
2023-01-20T14:50:54.803Z,96992.56
2023-01-20T14:52:57.705Z,96998.94
2023-01-20T14:55:00.378Z,96995.34
2023-01-20T14:57:20.456Z,96997.31
2023-01-20T14:59:24.269Z,97000.06
2023-01-20T15:01:27.795Z,97002.84
2023-01-20T15:03:39.542Z,97012.47
2023-01-20T15:05:54.725Z,97003.28
2023-01-20T15:08:16.204Z,96996.72
2023-01-20T15:10:19.767Z,97008.69
2023-01-20T15:12:42.463Z,97013.78
2023-01-20T15:15:00.730Z,97006.72
2023-01-20T15:17:10.064Z,97006.28
2023-01-20T15:19:47.085Z,97002.00
2023-01-20T15:21:51.335Z,97009.19
2023-01-20T15:23:54.592Z,97013.78
2023-01-20T15:25:57.367Z,97010.50
2023-01-20T15:28:00.222Z,97015.72
2023-01-20T15:30:19.605Z,97011.47
2023-01-20T15:32:22.466Z,97012.28
2023-01-20T15:34:26.015Z,97010.63
2023-01-20T15:36:33.352Z,97013.09
2023-01-20T15:38:35.995Z,97005.91
2023-01-20T15:40:39.650Z,97010.13
2023-01-20T15:42:42.804Z,97018.72
2023-01-20T15:44:45.570Z,97014.00
2023-01-20T15:46:48.872Z,97020.53
2023-01-20T15:48:51.842Z,97012.91
2023-01-20T15:50:54.609Z,97016.50
2023-01-20T15:52:58.788Z,97017.31
2023-01-20T15:55:01.481Z,97016.84
2023-01-20T15:57:04.409Z,97017.38
2023-01-20T15:59:12.888Z,97019.56
2023-01-20T16:01:17.609Z,97019.25
2023-01-20T16:03:20.489Z,97023.34
2023-01-20T16:05:23.285Z,97016.31
2023-01-20T16:07:26.037Z,97020.28
2023-01-20T16:09:33.824Z,97015.06
2023-01-20T16:11:36.513Z,97021.72
2023-01-20T16:13:39.395Z,97016.47
2023-01-20T16:15:43.286Z,97017.59
2023-01-20T16:17:46.061Z,97021.19
2023-01-20T16:19:49.172Z,97031.66
2023-01-20T16:21:51.926Z,97024.41
2023-01-20T16:23:54.624Z,97023.59
2023-01-20T16:25:59.022Z,97026.06
2023-01-20T16:28:02.100Z,97032.25
2023-01-20T16:30:05.673Z,97020.16
2023-01-20T16:32:08.512Z,97028.53
2023-01-20T16:34:11.280Z,97032.81
2023-01-20T16:36:15.683Z,97026.75
2023-01-20T16:38:21.194Z,97024.13
2023-01-20T16:40:24.582Z,97021.50
2023-01-20T16:42:28.575Z,97027.72
2023-01-20T16:44:31.275Z,97035.41
2023-01-20T16:46:34.013Z,97026.75
2023-01-20T16:48:36.636Z,97037.22
2023-01-20T16:50:39.758Z,97031.97
2023-01-20T16:52:45.193Z,97034.44
2023-01-20T16:54:47.937Z,97036.91
2023-01-20T16:56:50.948Z,97030.84
2023-01-20T16:58:57.616Z,97040.34
2023-01-20T17:01:00.263Z,97041.31
2023-01-20T17:03:03.287Z,97036.91
2023-01-20T17:05:07.903Z,97043.78
2023-01-20T17:07:10.506Z,97033.47
2023-01-20T17:09:14.050Z,97037.88
2023-01-20T17:11:18.166Z,97041.31
2023-01-20T17:13:20.795Z,97043.28
2023-01-20T17:15:25.447Z,97039.84
2023-01-20T17:17:28.119Z,97042.47
2023-01-20T17:19:31.100Z,97048.66
2023-01-20T17:21:38.193Z,97047.69
2023-01-20T17:23:41.519Z,97056.53
2023-01-20T17:25:44.173Z,97046.88
2023-01-20T17:27:46.891Z,97056.53
2023-01-20T17:29:49.536Z,97048.78
2023-01-20T17:31:53.801Z,97048.78
2023-01-20T17:33:56.609Z,97050.59
2023-01-20T17:36:01.351Z,97059.41
2023-01-20T17:38:04.182Z,97060.41
2023-01-20T17:40:07.848Z,97059.72
2023-01-20T17:42:10.553Z,97058.75
2023-01-20T17:44:13.459Z,97051.06
2023-01-20T17:46:18.796Z,97061.69
2023-01-20T17:48:22.968Z,97061.81
2023-01-20T17:50:25.817Z,97064.59
2023-01-20T17:52:28.763Z,97064.59
2023-01-20T17:54:31.453Z,97060.75
2023-01-20T17:56:34.121Z,97066.47
2023-01-20T17:58:37.500Z,97064.13
2023-01-20T18:00:40.226Z,97063.44
2023-01-20T18:02:43.041Z,97066.72
2023-01-20T18:04:47.278Z,97070.16
2023-01-20T18:06:49.912Z,97071.03
2023-01-20T18:08:54.308Z,97064.13
2023-01-20T18:10:57.217Z,97073.66
2023-01-20T18:12:59.959Z,97074.59
2023-01-20T18:15:02.692Z,97078.03
2023-01-20T18:17:05.551Z,97074.59
2023-01-20T18:19:10.297Z,97076.53
2023-01-20T18:21:16.581Z,97080.94
2023-01-20T18:23:19.314Z,97083.72
2023-01-20T18:25:22.078Z,97077.13
2023-01-20T18:27:25.029Z,97080.19
2023-01-20T18:29:29.935Z,97084.75
2023-01-20T18:31:33.684Z,97084.59
2023-01-20T18:33:38.451Z,97074.94
2023-01-20T18:35:41.067Z,97080.03
2023-01-20T18:37:45.211Z,97091.19
2023-01-20T18:39:47.937Z,97080.72
2023-01-20T18:41:51.843Z,97085.97
2023-01-20T18:43:55.021Z,97085.97
2023-01-20T18:45:57.966Z,97089.56
2023-01-20T18:48:00.713Z,97096.28
2023-01-20T18:50:03.394Z,97080.72
2023-01-20T18:52:06.352Z,97083.19
2023-01-20T18:54:15.983Z,97085.97
2023-01-20T18:56:20.151Z,97088.28
2023-01-20T18:58:22.981Z,97092.53
2023-01-20T19:00:26.060Z,97089.09
2023-01-20T19:02:28.974Z,97086.47
2023-01-20T19:04:33.695Z,97088.28
2023-01-20T19:06:38.298Z,97092.53
2023-01-20T19:08:43.472Z,97088.13
2023-01-20T19:10:47.924Z,97088.44
2023-01-20T19:12:52.165Z,97089.56
2023-01-20T19:14:54.846Z,97081.81
2023-01-20T19:16:57.499Z,97090.66
2023-01-20T19:19:02.212Z,97076.06
2023-01-20T19:21:06.147Z,97086.53
2023-01-20T19:23:08.720Z,97088.47
2023-01-20T19:25:12.032Z,97087.66
2023-01-20T19:27:16.011Z,97088.47
2023-01-20T19:29:19.593Z,97090.78
2023-01-20T19:31:22.450Z,97088.19
2023-01-20T19:33:25.313Z,97086.38
2023-01-20T19:35:28.633Z,97088.19
2023-01-20T19:37:32.541Z,97091.09
2023-01-20T19:39:35.307Z,97095.66
2023-01-20T19:41:39.414Z,97089.44
2023-01-20T19:43:44.775Z,97095.34
2023-01-20T19:45:47.439Z,97097.69
2023-01-20T19:47:50.122Z,97100.84
2023-01-20T19:49:52.798Z,97104.13
2023-01-20T19:51:55.515Z,97106.59
2023-01-20T19:53:59.847Z,97103.16
2023-01-20T19:56:03.104Z,97102.34
2023-01-20T19:58:06.221Z,97104.44
2023-01-20T20:00:12.130Z,97102.25
2023-01-20T20:02:14.802Z,97104.19
2023-01-20T20:04:20.360Z,97104.72
2023-01-20T20:06:26.110Z,97107.72
2023-01-20T20:08:28.872Z,97100.25
2023-01-20T20:10:31.689Z,97109.75
2023-01-20T20:12:34.441Z,97103.38
2023-01-20T20:14:37.187Z,97112.75
2023-01-20T20:16:41.633Z,97113.44
2023-01-20T20:18:44.576Z,97109.69
2023-01-20T20:20:47.293Z,97114.09
2023-01-20T20:22:50.014Z,97112.31
2023-01-20T20:24:52.714Z,97115.59
2023-01-20T20:26:57.523Z,97108.41
2023-01-20T20:29:02.036Z,97105.78
2023-01-20T20:31:06.095Z,97103.88
2023-01-20T20:33:10.327Z,97106.50
2023-01-20T20:35:13.102Z,97113.22
2023-01-20T20:37:15.801Z,97112.25
2023-01-20T20:39:20.227Z,97105.06
2023-01-20T20:41:25.811Z,97109.16
2023-01-20T20:43:28.480Z,97108.19
2023-01-20T20:45:31.809Z,97105.59
2023-01-20T20:47:34.541Z,97118.56
2023-01-20T20:49:38.610Z,97117.44
2023-01-20T20:51:41.268Z,97113.00
2023-01-20T20:53:44.659Z,97111.38
2023-01-20T20:55:47.503Z,97114.97
2023-01-20T20:57:50.147Z,97118.41
2023-01-20T20:59:59.349Z,97115.78
2023-01-20T21:02:02.448Z,97107.78
2023-01-20T21:04:05.770Z,97108.09
2023-01-20T21:06:10.399Z,97111.63
2023-01-20T21:08:13.094Z,97103.50
2023-01-20T21:10:17.129Z,97111.38
2023-01-20T21:12:20.036Z,97119.22
2023-01-20T21:14:23.710Z,97118.56
2023-01-20T21:16:27.995Z,97112.91
2023-01-20T21:18:31.568Z,97109.63
2023-01-20T21:20:34.386Z,97107.16
2023-01-20T21:22:38.402Z,97108.00
2023-01-20T21:24:41.038Z,97107.84
2023-01-20T21:26:43.743Z,97111.44
2023-01-20T21:28:49.070Z,97104.41
2023-01-20T21:30:51.950Z,97108.81
2023-01-20T21:32:54.713Z,97106.50
2023-01-20T21:34:58.859Z,97109.22
2023-01-20T21:37:01.640Z,97113.66
2023-01-20T21:39:05.934Z,97103.31
2023-01-20T21:41:10.780Z,97099.06
2023-01-20T21:43:30.927Z,97105.13
2023-01-20T21:45:33.542Z,97110.34
2023-01-20T21:47:36.275Z,97108.72
2023-01-20T21:49:56.294Z,97110.66
2023-01-20T21:52:16.660Z,97104.59
2023-01-20T21:54:21.265Z,97110.66
2023-01-20T21:56:23.870Z,97110.66
2023-01-20T21:58:26.531Z,97108.03
2023-01-20T22:00:29.612Z,97112.31
2023-01-20T22:02:32.359Z,97109.00
2023-01-20T22:04:35.083Z,97110.66
2023-01-20T22:06:37.863Z,97113.44
2023-01-20T22:08:40.569Z,97113.47
2023-01-20T22:10:44.589Z,97116.41
2023-01-20T22:12:47.608Z,97108.53
2023-01-20T22:14:50.365Z,97112.66
2023-01-20T22:16:53.159Z,97109.88
2023-01-20T22:18:56.011Z,97114.97
2023-01-20T22:21:02.471Z,97106.97
2023-01-20T22:23:05.611Z,97118.16
2023-01-20T22:25:08.816Z,97112.91
2023-01-20T22:27:12.890Z,97114.56
